Terminal Aerodrome Forecast
Issued by NWS Twin Cities, MN

Home | Current Version | Previous Version | Graphics & Text | Print | Product List | Glossary On
Versions: 1 2 3 4 5 6 7 8 9 10 11 12 13 14 15 16 17 18 19 20
625
FTUS43 KMPX 171644 AAC
TAFSTC
TAF AMD
KSTC 171644Z 1717/1812 31004KT 1/4SM FZFG OVC002
      TEMPO 1717/1719 1SM BR OVC005
     FM171900 25004KT 1SM BR BKN005
      TEMPO 1721/1724 6SM BR SCT005
     FM180000 20005KT 6SM BR FEW005 SCT250=

USA.gov is the U.S. government's official web portal to all federal, state and local government web resources and services.